sensor_id;sensor_type;location;lat;lon;timestamp;pressure;altitude;pressure_sealevel;temperature;humidity
26807;BME280;14380;49.910;6.792;2022-09-12T00:00:49;98974.69;;;13.48;100.00
26807;BME280;14380;49.910;6.792;2022-09-12T00:03:16;98971.31;;;13.46;100.00
26807;BME280;14380;49.910;6.792;2022-09-12T00:05:43;98969.59;;;13.45;100.00
26807;BME280;14380;49.910;6.792;2022-09-12T00:08:10;98966.25;;;13.56;100.00
26807;BME280;14380;49.910;6.792;2022-09-12T00:10:37;98974.47;;;13.51;100.00
26807;BME280;14380;49.910;6.792;2022-09-12T00:13:04;98977.88;;;13.53;100.00
26807;BME280;14380;49.910;6.792;2022-09-12T00:15:31;98975.63;;;13.32;100.00
26807;BME280;14380;49.910;6.792;2022-09-12T00:17:59;98973.63;;;13.36;100.00
26807;BME280;14380;49.910;6.792;2022-09-12T00:20:25;98966.94;;;13.45;100.00
26807;BME280;14380;49.910;6.792;2022-09-12T00:22:52;98971.28;;;13.31;100.00
26807;BME280;14380;49.910;6.792;2022-09-12T00:25:19;98972.50;;;13.26;100.00
26807;BME280;14380;49.910;6.792;2022-09-12T00:27:45;98968.72;;;13.44;100.00
26807;BME280;14380;49.910;6.792;2022-09-12T00:30:12;98971.94;;;13.35;100.00
26807;BME280;14380;49.910;6.792;2022-09-12T00:32:39;98963.72;;;13.25;100.00
26807;BME280;14380;49.910;6.792;2022-09-12T00:35:07;98967.50;;;13.06;100.00
26807;BME280;14380;49.910;6.792;2022-09-12T00:37:34;98963.16;;;13.20;100.00
26807;BME280;14380;49.910;6.792;2022-09-12T00:40:01;98955.94;;;13.22;100.00
26807;BME280;14380;49.910;6.792;2022-09-12T00:42:27;98948.88;;;13.22;100.00
26807;BME280;14380;49.910;6.792;2022-09-12T00:44:54;98951.03;;;13.30;100.00
26807;BME280;14380;49.910;6.792;2022-09-12T00:47:26;98948.44;;;13.29;100.00
26807;BME280;14380;49.910;6.792;2022-09-12T00:50:00;98951.22;;;13.13;100.00
26807;BME280;14380;49.910;6.792;2022-09-12T00:52:33;98951.72;;;12.90;100.00
26807;BME280;14380;49.910;6.792;2022-09-12T00:55:04;98938.00;;;12.98;100.00
26807;BME280;14380;49.910;6.792;2022-09-12T00:57:36;98939.97;;;12.94;100.00
26807;BME280;14380;49.910;6.792;2022-09-12T01:00:08;98944.91;;;13.01;100.00
26807;BME280;14380;49.910;6.792;2022-09-12T01:02:40;98939.50;;;13.02;100.00
26807;BME280;14380;49.910;6.792;2022-09-12T01:05:07;98937.44;;;12.93;100.00
26807;BME280;14380;49.910;6.792;2022-09-12T01:07:37;98931.34;;;13.05;100.00
26807;BME280;14380;49.910;6.792;2022-09-12T01:10:05;98931.16;;;13.08;100.00
26807;BME280;14380;49.910;6.792;2022-09-12T01:12:33;98925.19;;;13.19;100.00
26807;BME280;14380;49.910;6.792;2022-09-12T01:15:00;98925.88;;;12.65;100.00
26807;BME280;14380;49.910;6.792;2022-09-12T01:20:25;98925.16;;;12.18;100.00
26807;BME280;14380;49.910;6.792;2022-09-12T01:23:32;98929.03;;;12.12;100.00
26807;BME280;14380;49.910;6.792;2022-09-12T01:26:17;98922.66;;;12.45;100.00
26807;BME280;14380;49.910;6.792;2022-09-12T01:29:00;98922.03;;;12.26;100.00
26807;BME280;14380;49.910;6.792;2022-09-12T01:31:36;98920.38;;;12.39;100.00
26807;BME280;14380;49.910;6.792;2022-09-12T01:34:16;98923.34;;;12.18;100.00
26807;BME280;14380;49.910;6.792;2022-09-12T01:36:51;98924.75;;;12.55;100.00
26807;BME280;14380;49.910;6.792;2022-09-12T01:39:28;98916.09;;;12.22;100.00
26807;BME280;14380;49.910;6.792;2022-09-12T01:42:08;98913.09;;;12.28;100.00
26807;BME280;14380;49.910;6.792;2022-09-12T01:44:43;98920.16;;;12.13;100.00
26807;BME280;14380;49.910;6.792;2022-09-12T01:47:17;98917.81;;;12.38;100.00
26807;BME280;14380;49.910;6.792;2022-09-12T01:49:51;98911.84;;;12.34;100.00
26807;BME280;14380;49.910;6.792;2022-09-12T01:52:26;98908.56;;;12.30;100.00
26807;BME280;14380;49.910;6.792;2022-09-12T01:54:58;98914.28;;;12.23;100.00
26807;BME280;14380;49.910;6.792;2022-09-12T01:57:30;98911.19;;;12.30;100.00
26807;BME280;14380;49.910;6.792;2022-09-12T02:00:03;98904.47;;;12.25;100.00
26807;BME280;14380;49.910;6.792;2022-09-12T02:02:34;98903.25;;;12.30;100.00
26807;BME280;14380;49.910;6.792;2022-09-12T02:05:07;98906.09;;;12.42;100.00
26807;BME280;14380;49.910;6.792;2022-09-12T02:07:37;98900.91;;;12.40;100.00
26807;BME280;14380;49.910;6.792;2022-09-12T02:10:09;98902.59;;;12.41;100.00
26807;BME280;14380;49.910;6.792;2022-09-12T02:12:41;98906.16;;;12.26;100.00
26807;BME280;14380;49.910;6.792;2022-09-12T02:15:11;98898.78;;;12.31;100.00
26807;BME280;14380;49.910;6.792;2022-09-12T02:17:43;98892.78;;;12.43;100.00
26807;BME280;14380;49.910;6.792;2022-09-12T02:20:17;98898.44;;;12.37;100.00
26807;BME280;14380;49.910;6.792;2022-09-12T02:22:47;98894.72;;;12.40;100.00
26807;BME280;14380;49.910;6.792;2022-09-12T02:25:17;98896.34;;;12.42;100.00
26807;BME280;14380;49.910;6.792;2022-09-12T02:27:47;98901.22;;;12.19;100.00
26807;BME280;14380;49.910;6.792;2022-09-12T02:30:15;98891.03;;;12.13;100.00
26807;BME280;14380;49.910;6.792;2022-09-12T02:32:52;98890.38;;;12.39;100.00
26807;BME280;14380;49.910;6.792;2022-09-12T02:35:30;98890.66;;;12.34;100.00
26807;BME280;14380;49.910;6.792;2022-09-12T02:38:01;98898.13;;;11.97;100.00
26807;BME280;14380;49.910;6.792;2022-09-12T02:40:30;98891.44;;;11.75;100.00
26807;BME280;14380;49.910;6.792;2022-09-12T02:42:59;98895.19;;;11.71;100.00
26807;BME280;14380;49.910;6.792;2022-09-12T02:45:26;98902.41;;;11.99;100.00
26807;BME280;14380;49.910;6.792;2022-09-12T02:47:57;98904.72;;;11.89;100.00
26807;BME280;14380;49.910;6.792;2022-09-12T02:50:25;98909.25;;;11.87;100.00
26807;BME280;14380;49.910;6.792;2022-09-12T02:52:53;98895.78;;;11.76;100.00
26807;BME280;14380;49.910;6.792;2022-09-12T02:55:24;98902.59;;;11.80;100.00
26807;BME280;14380;49.910;6.792;2022-09-12T02:57:51;98899.47;;;11.73;100.00
26807;BME280;14380;49.910;6.792;2022-09-12T03:00:18;98898.50;;;11.90;100.00
26807;BME280;14380;49.910;6.792;2022-09-12T03:02:58;98893.09;;;12.08;100.00
26807;BME280;14380;49.910;6.792;2022-09-12T03:05:30;98888.38;;;11.97;100.00
26807;BME280;14380;49.910;6.792;2022-09-12T03:08:08;98882.50;;;12.08;100.00
26807;BME280;14380;49.910;6.792;2022-09-12T03:10:45;98893.94;;;12.09;100.00
26807;BME280;14380;49.910;6.792;2022-09-12T03:13:22;98893.69;;;12.13;100.00
26807;BME280;14380;49.910;6.792;2022-09-12T03:15:59;98890.06;;;12.14;100.00
26807;BME280;14380;49.910;6.792;2022-09-12T03:18:41;98889.41;;;12.11;100.00
26807;BME280;14380;49.910;6.792;2022-09-12T03:21:14;98889.34;;;12.27;100.00
26807;BME280;14380;49.910;6.792;2022-09-12T03:23:47;98884.63;;;12.32;100.00
26807;BME280;14380;49.910;6.792;2022-09-12T03:26:22;98887.44;;;12.29;100.00
26807;BME280;14380;49.910;6.792;2022-09-12T03:28:52;98884.53;;;12.33;100.00
26807;BME280;14380;49.910;6.792;2022-09-12T03:31:20;98886.31;;;12.33;100.00
26807;BME280;14380;49.910;6.792;2022-09-12T03:33:48;98887.84;;;12.37;100.00
26807;BME280;14380;49.910;6.792;2022-09-12T03:36:19;98879.72;;;12.40;100.00
26807;BME280;14380;49.910;6.792;2022-09-12T03:38:47;98881.31;;;11.98;100.00
26807;BME280;14380;49.910;6.792;2022-09-12T03:41:14;98880.72;;;11.93;100.00
26807;BME280;14380;49.910;6.792;2022-09-12T03:43:40;98883.28;;;11.94;100.00
26807;BME280;14380;49.910;6.792;2022-09-12T03:46:07;98877.84;;;11.81;100.00
26807;BME280;14380;49.910;6.792;2022-09-12T03:48:34;98876.78;;;11.69;100.00
26807;BME280;14380;49.910;6.792;2022-09-12T03:51:03;98874.25;;;11.68;100.00
26807;BME280;14380;49.910;6.792;2022-09-12T03:53:30;98878.19;;;11.60;100.00
26807;BME280;14380;49.910;6.792;2022-09-12T03:55:58;98871.50;;;11.69;100.00
26807;BME280;14380;49.910;6.792;2022-09-12T03:58:29;98863.66;;;11.68;100.00
26807;BME280;14380;49.910;6.792;2022-09-12T04:00:55;98860.50;;;11.92;100.00
26807;BME280;14380;49.910;6.792;2022-09-12T04:03:22;98862.31;;;11.91;100.00
26807;BME280;14380;49.910;6.792;2022-09-12T04:05:49;98865.63;;;11.95;100.00
26807;BME280;14380;49.910;6.792;2022-09-12T04:08:19;98870.59;;;12.01;100.00
26807;BME280;14380;49.910;6.792;2022-09-12T04:10:45;98864.00;;;12.08;100.00
26807;BME280;14380;49.910;6.792;2022-09-12T04:13:12;98863.03;;;12.09;100.00
26807;BME280;14380;49.910;6.792;2022-09-12T04:15:38;98862.66;;;12.15;100.00
26807;BME280;14380;49.910;6.792;2022-09-12T04:18:05;98870.44;;;12.33;100.00
26807;BME280;14380;49.910;6.792;2022-09-12T04:20:32;98867.09;;;12.15;100.00
26807;BME280;14380;49.910;6.792;2022-09-12T04:22:58;98868.53;;;12.20;100.00
26807;BME280;14380;49.910;6.792;2022-09-12T04:25:26;98865.88;;;12.20;100.00
26807;BME280;14380;49.910;6.792;2022-09-12T04:27:53;98859.81;;;12.18;100.00
26807;BME280;14380;49.910;6.792;2022-09-12T04:30:20;98860.75;;;12.17;100.00
26807;BME280;14380;49.910;6.792;2022-09-12T04:32:46;98853.59;;;12.05;100.00
26807;BME280;14380;49.910;6.792;2022-09-12T04:35:14;98862.19;;;12.09;100.00
26807;BME280;14380;49.910;6.792;2022-09-12T04:37:41;98856.69;;;12.12;100.00
26807;BME280;14380;49.910;6.792;2022-09-12T04:40:08;98862.66;;;12.15;100.00
26807;BME280;14380;49.910;6.792;2022-09-12T04:42:36;98850.19;;;12.17;100.00
26807;BME280;14380;49.910;6.792;2022-09-12T04:45:04;98855.66;;;12.14;100.00
26807;BME280;14380;49.910;6.792;2022-09-12T04:47:30;98852.47;;;12.09;100.00
26807;BME280;14380;49.910;6.792;2022-09-12T04:49:57;98852.53;;;12.08;100.00
26807;BME280;14380;49.910;6.792;2022-09-12T04:52:24;98850.06;;;12.04;100.00
26807;BME280;14380;49.910;6.792;2022-09-12T04:54:50;98852.13;;;11.99;100.00
26807;BME280;14380;49.910;6.792;2022-09-12T04:57:17;98849.69;;;11.80;100.00
26807;BME280;14380;49.910;6.792;2022-09-12T04:59:45;98854.75;;;11.85;100.00
26807;BME280;14380;49.910;6.792;2022-09-12T05:02:12;98853.34;;;11.94;100.00
26807;BME280;14380;49.910;6.792;2022-09-12T05:04:38;98851.81;;;11.89;100.00
26807;BME280;14380;49.910;6.792;2022-09-12T05:07:05;98850.84;;;12.07;100.00
26807;BME280;14380;49.910;6.792;2022-09-12T05:09:31;98848.03;;;11.94;100.00
26807;BME280;14380;49.910;6.792;2022-09-12T05:11:58;98851.16;;;11.86;100.00
26807;BME280;14380;49.910;6.792;2022-09-12T05:14:25;98847.72;;;12.14;100.00
26807;BME280;14380;49.910;6.792;2022-09-12T05:16:53;98844.28;;;11.98;100.00
26807;BME280;14380;49.910;6.792;2022-09-12T05:19:23;98847.38;;;11.90;100.00
26807;BME280;14380;49.910;6.792;2022-09-12T05:21:50;98845.56;;;11.90;100.00
26807;BME280;14380;49.910;6.792;2022-09-12T05:24:17;98846.66;;;12.02;100.00
26807;BME280;14380;49.910;6.792;2022-09-12T05:26:43;98846.44;;;11.91;100.00
26807;BME280;14380;49.910;6.792;2022-09-12T05:29:10;98849.34;;;11.86;100.00
26807;BME280;14380;49.910;6.792;2022-09-12T05:31:37;98847.09;;;11.95;100.00
26807;BME280;14380;49.910;6.792;2022-09-12T05:34:05;98845.47;;;12.08;100.00
26807;BME280;14380;49.910;6.792;2022-09-12T05:36:35;98851.13;;;12.02;100.00
26807;BME280;14380;49.910;6.792;2022-09-12T05:39:03;98850.34;;;12.14;100.00
26807;BME280;14380;49.910;6.792;2022-09-12T05:41:31;98853.91;;;12.29;100.00
26807;BME280;14380;49.910;6.792;2022-09-12T05:44:00;98848.69;;;12.28;100.00
26807;BME280;14380;49.910;6.792;2022-09-12T05:46:29;98854.16;;;12.25;100.00
26807;BME280;14380;49.910;6.792;2022-09-12T05:48:56;98846.03;;;12.28;100.00
26807;BME280;14380;49.910;6.792;2022-09-12T05:51:25;98850.56;;;12.11;100.00
26807;BME280;14380;49.910;6.792;2022-09-12T05:53:54;98851.50;;;12.25;100.00
26807;BME280;14380;49.910;6.792;2022-09-12T05:56:22;98845.78;;;12.32;100.00
26807;BME280;14380;49.910;6.792;2022-09-12T05:58:52;98846.59;;;12.33;100.00
26807;BME280;14380;49.910;6.792;2022-09-12T06:01:19;98849.44;;;12.44;100.00
26807;BME280;14380;49.910;6.792;2022-09-12T06:03:47;98853.50;;;12.50;100.00
26807;BME280;14380;49.910;6.792;2022-09-12T06:06:15;98852.38;;;12.54;100.00
26807;BME280;14380;49.910;6.792;2022-09-12T06:08:45;98849.53;;;12.43;100.00
26807;BME280;14380;49.910;6.792;2022-09-12T06:11:13;98854.84;;;12.28;100.00
26807;BME280;14380;49.910;6.792;2022-09-12T06:13:41;98855.97;;;12.24;100.00
26807;BME280;14380;49.910;6.792;2022-09-12T06:16:10;98851.91;;;12.47;100.00
26807;BME280;14380;49.910;6.792;2022-09-12T06:18:37;98865.34;;;12.44;100.00
26807;BME280;14380;49.910;6.792;2022-09-12T06:21:06;98865.81;;;12.66;100.00
26807;BME280;14380;49.910;6.792;2022-09-12T06:23:33;98862.31;;;12.51;100.00
26807;BME280;14380;49.910;6.792;2022-09-12T06:26:02;98871.84;;;12.53;100.00
26807;BME280;14380;49.910;6.792;2022-09-12T06:28:29;98864.66;;;12.55;100.00
26807;BME280;14380;49.910;6.792;2022-09-12T06:31:01;98861.53;;;12.63;100.00
26807;BME280;14380;49.910;6.792;2022-09-12T06:33:29;98862.97;;;12.69;100.00
26807;BME280;14380;49.910;6.792;2022-09-12T06:36:01;98861.34;;;12.66;100.00
26807;BME280;14380;49.910;6.792;2022-09-12T06:38:28;98871.31;;;13.04;100.00
26807;BME280;14380;49.910;6.792;2022-09-12T06:40:55;98863.41;;;13.32;100.00
26807;BME280;14380;49.910;6.792;2022-09-12T06:43:24;98871.72;;;13.40;100.00
26807;BME280;14380;49.910;6.792;2022-09-12T06:45:50;98874.81;;;13.74;100.00
26807;BME280;14380;49.910;6.792;2022-09-12T06:48:18;98865.66;;;14.06;100.00
26807;BME280;14380;49.910;6.792;2022-09-12T06:50:54;98870.97;;;14.19;100.00
26807;BME280;14380;49.910;6.792;2022-09-12T06:53:20;98862.69;;;14.49;100.00
26807;BME280;14380;49.910;6.792;2022-09-12T06:55:54;98861.09;;;14.60;100.00
26807;BME280;14380;49.910;6.792;2022-09-12T06:58:20;98858.56;;;14.71;100.00
26807;BME280;14380;49.910;6.792;2022-09-12T07:00:48;98860.19;;;14.98;100.00
26807;BME280;14380;49.910;6.792;2022-09-12T07:03:15;98863.75;;;15.23;100.00
26807;BME280;14380;49.910;6.792;2022-09-12T07:05:42;98863.03;;;15.32;100.00
26807;BME280;14380;49.910;6.792;2022-09-12T07:08:09;98857.56;;;15.46;100.00
26807;BME280;14380;49.910;6.792;2022-09-12T07:10:35;98853.56;;;15.76;100.00
26807;BME280;14380;49.910;6.792;2022-09-12T07:13:02;98845.78;;;15.98;100.00
26807;BME280;14380;49.910;6.792;2022-09-12T07:15:29;98850.16;;;15.99;100.00
26807;BME280;14380;49.910;6.792;2022-09-12T07:17:57;98852.84;;;16.10;100.00
26807;BME280;14380;49.910;6.792;2022-09-12T07:20:23;98844.50;;;16.15;100.00
26807;BME280;14380;49.910;6.792;2022-09-12T07:22:50;98849.25;;;16.23;100.00
26807;BME280;14380;49.910;6.792;2022-09-12T07:25:17;98852.53;;;16.38;100.00
26807;BME280;14380;49.910;6.792;2022-09-12T07:27:43;98858.34;;;16.88;100.00
26807;BME280;14380;49.910;6.792;2022-09-12T07:30:10;98854.09;;;16.86;100.00
26807;BME280;14380;49.910;6.792;2022-09-12T07:32:37;98851.06;;;16.68;100.00
26807;BME280;14380;49.910;6.792;2022-09-12T07:35:06;98858.47;;;16.53;100.00
26807;BME280;14380;49.910;6.792;2022-09-12T07:37:33;98853.16;;;16.75;100.00
26807;BME280;14380;49.910;6.792;2022-09-12T07:40:00;98858.25;;;16.67;100.00
26807;BME280;14380;49.910;6.792;2022-09-12T07:42:26;98855.78;;;16.41;100.00
26807;BME280;14380;49.910;6.792;2022-09-12T07:44:53;98854.06;;;16.17;100.00
26807;BME280;14380;49.910;6.792;2022-09-12T07:47:20;98852.00;;;16.21;100.00
26807;BME280;14380;49.910;6.792;2022-09-12T07:49:46;98858.13;;;16.46;100.00
26807;BME280;14380;49.910;6.792;2022-09-12T07:52:14;98851.09;;;16.45;100.00
26807;BME280;14380;49.910;6.792;2022-09-12T07:54:41;98855.31;;;16.47;100.00
26807;BME280;14380;49.910;6.792;2022-09-12T07:57:07;98856.66;;;16.53;100.00
26807;BME280;14380;49.910;6.792;2022-09-12T07:59:34;98853.13;;;16.53;100.00
26807;BME280;14380;49.910;6.792;2022-09-12T08:02:09;98847.94;;;16.74;100.00
26807;BME280;14380;49.910;6.792;2022-09-12T08:04:37;98852.28;;;16.86;100.00
26807;BME280;14380;49.910;6.792;2022-09-12T08:07:04;98851.44;;;16.52;100.00
26807;BME280;14380;49.910;6.792;2022-09-12T08:09:32;98853.75;;;16.68;100.00
26807;BME280;14380;49.910;6.792;2022-09-12T08:11:58;98852.50;;;17.06;100.00
26807;BME280;14380;49.910;6.792;2022-09-12T08:14:25;98849.63;;;16.86;100.00
26807;BME280;14380;49.910;6.792;2022-09-12T08:16:52;98850.59;;;16.85;100.00
26807;BME280;14380;49.910;6.792;2022-09-12T08:19:19;98849.03;;;16.71;100.00
26807;BME280;14380;49.910;6.792;2022-09-12T08:21:47;98847.78;;;17.21;100.00
26807;BME280;14380;49.910;6.792;2022-09-12T08:24:13;98842.88;;;17.26;100.00
26807;BME280;14380;49.910;6.792;2022-09-12T08:26:41;98847.78;;;17.21;100.00
26807;BME280;14380;49.910;6.792;2022-09-12T08:29:08;98848.97;;;17.61;100.00
26807;BME280;14380;49.910;6.792;2022-09-12T08:31:35;98852.34;;;18.17;100.00
26807;BME280;14380;49.910;6.792;2022-09-12T08:34:02;98850.56;;;17.84;100.00
26807;BME280;14380;49.910;6.792;2022-09-12T08:36:30;98845.00;;;18.09;100.00
26807;BME280;14380;49.910;6.792;2022-09-12T08:38:58;98846.09;;;18.27;100.00
26807;BME280;14380;49.910;6.792;2022-09-12T08:41:28;98846.13;;;18.37;100.00
26807;BME280;14380;49.910;6.792;2022-09-12T08:44:11;98848.66;;;18.29;100.00
26807;BME280;14380;49.910;6.792;2022-09-12T08:46:48;98839.66;;;18.71;100.00
26807;BME280;14380;49.910;6.792;2022-09-12T08:49:25;98853.09;;;18.50;100.00
26807;BME280;14380;49.910;6.792;2022-09-12T08:51:54;98853.91;;;18.19;100.00
26807;BME280;14380;49.910;6.792;2022-09-12T08:54:25;98855.59;;;18.20;100.00
26807;BME280;14380;49.910;6.792;2022-09-12T08:56:57;98852.72;;;18.33;100.00
26807;BME280;14380;49.910;6.792;2022-09-12T08:59:31;98855.94;;;18.27;100.00
26807;BME280;14380;49.910;6.792;2022-09-12T09:02:01;98854.28;;;18.36;100.00
26807;BME280;14380;49.910;6.792;2022-09-12T09:04:35;98839.09;;;18.67;100.00
26807;BME280;14380;49.910;6.792;2022-09-12T09:07:17;98841.66;;;18.79;100.00
26807;BME280;14380;49.910;6.792;2022-09-12T09:10:02;98845.03;;;18.81;100.00
26807;BME280;14380;49.910;6.792;2022-09-12T09:12:38;98845.88;;;19.12;100.00
26807;BME280;14380;49.910;6.792;2022-09-12T09:15:20;98831.56;;;19.43;100.00
26807;BME280;14380;49.910;6.792;2022-09-12T09:17:53;98821.41;;;19.56;100.00
26807;BME280;14380;49.910;6.792;2022-09-12T09:20:26;98818.44;;;19.50;100.00
26807;BME280;14380;49.910;6.792;2022-09-12T09:22:57;98821.66;;;19.73;100.00
26807;BME280;14380;49.910;6.792;2022-09-12T09:25:36;98811.38;;;19.78;100.00
26807;BME280;14380;49.910;6.792;2022-09-12T09:28:06;98805.63;;;20.40;100.00
26807;BME280;14380;49.910;6.792;2022-09-12T09:30:39;98810.66;;;20.05;100.00
26807;BME280;14380;49.910;6.792;2022-09-12T09:33:16;98805.31;;;19.96;100.00
26807;BME280;14380;49.910;6.792;2022-09-12T09:35:46;98809.72;;;20.44;100.00
26807;BME280;14380;49.910;6.792;2022-09-12T09:38:22;98805.81;;;20.29;100.00
26807;BME280;14380;49.910;6.792;2022-09-12T09:40:51;98805.22;;;20.73;100.00
26807;BME280;14380;49.910;6.792;2022-09-12T09:43:22;98801.53;;;20.74;100.00
26807;BME280;14380;49.910;6.792;2022-09-12T09:45:51;98804.13;;;20.56;100.00
26807;BME280;14380;49.910;6.792;2022-09-12T09:48:21;98800.22;;;20.88;100.00
26807;BME280;14380;49.910;6.792;2022-09-12T09:50:49;98795.88;;;21.05;100.00
26807;BME280;14380;49.910;6.792;2022-09-12T09:53:31;98786.13;;;21.22;100.00
26807;BME280;14380;49.910;6.792;2022-09-12T09:56:00;98790.19;;;21.08;99.04
26807;BME280;14380;49.910;6.792;2022-09-12T09:58:29;98790.91;;;21.28;95.42
26807;BME280;14380;49.910;6.792;2022-09-12T10:01:01;98783.97;;;21.44;96.43
26807;BME280;14380;49.910;6.792;2022-09-12T10:03:31;98780.25;;;21.99;96.92
26807;BME280;14380;49.910;6.792;2022-09-12T10:06:00;98772.69;;;21.76;92.86
26807;BME280;14380;49.910;6.792;2022-09-12T10:08:29;98768.16;;;22.38;95.04
26807;BME280;14380;49.910;6.792;2022-09-12T10:10:59;98765.81;;;22.35;96.72
26807;BME280;14380;49.910;6.792;2022-09-12T10:13:32;98753.19;;;22.62;97.39
26807;BME280;14380;49.910;6.792;2022-09-12T10:16:03;98759.91;;;22.31;89.80
26807;BME280;14380;49.910;6.792;2022-09-12T10:18:37;98757.50;;;22.46;91.65
26807;BME280;14380;49.910;6.792;2022-09-12T10:21:17;98753.78;;;22.47;84.52
26807;BME280;14380;49.910;6.792;2022-09-12T10:23:45;98753.38;;;22.68;83.54
26807;BME280;14380;49.910;6.792;2022-09-12T10:26:14;98757.03;;;22.51;85.02
26807;BME280;14380;49.910;6.792;2022-09-12T10:28:47;98745.56;;;22.57;91.48
26807;BME280;14380;49.910;6.792;2022-09-12T10:31:22;98743.09;;;23.23;83.91
26807;BME280;14380;49.910;6.792;2022-09-12T10:33:54;98744.25;;;23.29;83.04
26807;BME280;14380;49.910;6.792;2022-09-12T10:36:22;98742.44;;;23.38;81.85
26807;BME280;14380;49.910;6.792;2022-09-12T10:38:50;98739.03;;;23.44;87.07
26807;BME280;14380;49.910;6.792;2022-09-12T10:41:17;98737.13;;;23.20;87.84
26807;BME280;14380;49.910;6.792;2022-09-12T10:43:44;98733.97;;;23.57;80.57
26807;BME280;14380;49.910;6.792;2022-09-12T10:46:28;98724.06;;;23.50;82.43
26807;BME280;14380;49.910;6.792;2022-09-12T10:49:20;98726.00;;;23.97;83.91
26807;BME280;14380;49.910;6.792;2022-09-12T10:51:47;98723.88;;;23.76;79.05
26807;BME280;14380;49.910;6.792;2022-09-12T10:54:16;98729.63;;;23.40;90.46
26807;BME280;14380;49.910;6.792;2022-09-12T10:56:53;98723.53;;;23.79;77.20
26807;BME280;14380;49.910;6.792;2022-09-12T10:59:33;98718.28;;;23.86;80.27
26807;BME280;14380;49.910;6.792;2022-09-12T11:02:13;98727.31;;;24.26;84.55
26807;BME280;14380;49.910;6.792;2022-09-12T11:04:53;98729.06;;;23.86;78.24
26807;BME280;14380;49.910;6.792;2022-09-12T11:07:34;98728.88;;;24.12;78.88
26807;BME280;14380;49.910;6.792;2022-09-12T11:10:18;98718.28;;;24.02;74.79
26807;BME280;14380;49.910;6.792;2022-09-12T11:12:52;98713.13;;;24.72;76.12
26807;BME280;14380;49.910;6.792;2022-09-12T11:15:37;98708.69;;;24.40;75.03
26807;BME280;14380;49.910;6.792;2022-09-12T11:18:21;98704.00;;;24.33;76.38
26807;BME280;14380;49.910;6.792;2022-09-12T11:21:11;98705.94;;;24.16;73.79
26807;BME280;14380;49.910;6.792;2022-09-12T11:24:08;98706.25;;;24.53;69.92
26807;BME280;14380;49.910;6.792;2022-09-12T11:29:47;98700.63;;;24.71;78.25
26807;BME280;14380;49.910;6.792;2022-09-12T11:35:17;98693.91;;;25.60;68.17
26807;BME280;14380;49.910;6.792;2022-09-12T11:40:39;98698.38;;;25.30;64.63
26807;BME280;14380;49.910;6.792;2022-09-12T11:43:19;98688.28;;;25.00;63.21
26807;BME280;14380;49.910;6.792;2022-09-12T11:45:48;98692.50;;;25.64;67.81
26807;BME280;14380;49.910;6.792;2022-09-12T11:48:20;98695.59;;;25.38;70.43
26807;BME280;14380;49.910;6.792;2022-09-12T11:50:52;98694.59;;;25.16;64.71
26807;BME280;14380;49.910;6.792;2022-09-12T11:53:23;98685.81;;;25.75;65.52
26807;BME280;14380;49.910;6.792;2022-09-12T11:55:53;98682.72;;;25.40;64.46
26807;BME280;14380;49.910;6.792;2022-09-12T11:58:25;98679.47;;;25.68;69.27
26807;BME280;14380;49.910;6.792;2022-09-12T12:00:55;98680.66;;;25.27;62.67
26807;BME280;14380;49.910;6.792;2022-09-12T12:03:29;98666.50;;;25.02;62.53
26807;BME280;14380;49.910;6.792;2022-09-12T12:06:01;98659.50;;;25.84;65.96
26807;BME280;14380;49.910;6.792;2022-09-12T12:08:31;98660.22;;;25.48;69.72
26807;BME280;14380;49.910;6.792;2022-09-12T12:11:00;98662.50;;;25.59;63.49
26807;BME280;14380;49.910;6.792;2022-09-12T12:13:29;98656.59;;;25.71;62.35
26807;BME280;14380;49.910;6.792;2022-09-12T12:15:58;98670.13;;;25.71;62.27
26807;BME280;14380;49.910;6.792;2022-09-12T12:18:29;98664.63;;;25.79;65.75
26807;BME280;14380;49.910;6.792;2022-09-12T12:21:32;98660.47;;;25.38;72.67
26807;BME280;14380;49.910;6.792;2022-09-12T12:24:11;98655.88;;;25.77;61.88
26807;BME280;14380;49.910;6.792;2022-09-12T12:26:42;98646.56;;;25.94;64.55
26807;BME280;14380;49.910;6.792;2022-09-12T12:29:10;98652.63;;;25.81;64.41
26807;BME280;14380;49.910;6.792;2022-09-12T12:34:38;98632.09;;;26.17;66.69
26807;BME280;14380;49.910;6.792;2022-09-12T12:40:21;98630.94;;;26.11;67.50
26807;BME280;14380;49.910;6.792;2022-09-12T12:46:11;98629.50;;;26.82;63.78
26807;BME280;14380;49.910;6.792;2022-09-12T12:48:58;98631.66;;;26.94;61.50
26807;BME280;14380;49.910;6.792;2022-09-12T12:51:40;98627.31;;;26.78;59.67
26807;BME280;14380;49.910;6.792;2022-09-12T12:57:24;98627.88;;;26.51;69.17
26807;BME280;14380;49.910;6.792;2022-09-12T12:59:54;98620.63;;;27.17;62.52
26807;BME280;14380;49.910;6.792;2022-09-12T13:02:26;98622.06;;;26.69;65.72
26807;BME280;14380;49.910;6.792;2022-09-12T13:04:54;98617.31;;;26.35;64.62
26807;BME280;14380;49.910;6.792;2022-09-12T13:07:26;98611.78;;;27.30;63.79
26807;BME280;14380;49.910;6.792;2022-09-12T13:09:54;98611.09;;;26.56;60.84
26807;BME280;14380;49.910;6.792;2022-09-12T13:12:25;98599.94;;;27.38;61.65
26807;BME280;14380;49.910;6.792;2022-09-12T13:14:54;98603.53;;;27.16;58.71
26807;BME280;14380;49.910;6.792;2022-09-12T13:17:26;98599.78;;;27.17;57.71
26807;BME280;14380;49.910;6.792;2022-09-12T13:20:02;98592.94;;;26.56;58.41
26807;BME280;14380;49.910;6.792;2022-09-12T13:22:37;98598.03;;;26.45;60.33
26807;BME280;14380;49.910;6.792;2022-09-12T13:25:18;98586.59;;;27.08;59.32
26807;BME280;14380;49.910;6.792;2022-09-12T13:27:57;98583.94;;;27.21;59.86
26807;BME280;14380;49.910;6.792;2022-09-12T13:30:24;98576.00;;;26.91;60.97
26807;BME280;14380;49.910;6.792;2022-09-12T13:32:52;98582.91;;;26.72;57.42
26807;BME280;14380;49.910;6.792;2022-09-12T13:35:25;98576.50;;;26.80;57.55